Time;durP1;ratioP1;P1;durP2;ratioP2;P2;SDS_P1;SDS_P2;PMS_P1;PMS_P2;Temp;Humidity;BMP_temperature;BMP_pressure;BME280_temperature;BME280_humidity;BME280_pressure;Samples;Min_cycle;Max_cycle;Signal;HPM_P1;HPM_P2
2023/10/23 00:00:51;;;;;;;16.30;5.00;;;;;;;22.10;41.28;100147.56;109945;1283;21937;-58
2023/10/23 00:03:17;;;;;;;11.70;4.30;;;;;;;22.08;41.19;100146.98;109940;1286;21953;-57
2023/10/23 00:05:42;;;;;;;10.70;4.90;;;;;;;22.06;41.19;100146.95;109960;1286;21904;-66
2023/10/23 00:08:08;;;;;;;13.20;5.10;;;;;;;22.04;41.12;100145.96;109961;1286;21945;-58
2023/10/23 00:10:33;;;;;;;20.60;5.00;;;;;;;22.04;41.24;100147.57;109210;1276;1002179;-58
2023/10/23 00:12:59;;;;;;;11.40;4.90;;;;;;;22.03;41.09;100150.89;109977;1279;21943;-57
2023/10/23 00:15:24;;;;;;;13.10;4.40;;;;;;;22.00;40.87;100153.39;109943;1279;22006;-57
2023/10/23 00:17:50;;;;;;;11.30;4.20;;;;;;;21.97;40.94;100159.09;109954;1286;21945;-57
2023/10/23 00:20:16;;;;;;;11.30;4.50;;;;;;;21.89;40.96;100161.52;109971;1279;21981;-67
2023/10/23 00:22:41;;;;;;;18.60;5.20;;;;;;;21.86;41.22;100161.92;109959;1286;21947;-67
2023/10/23 00:25:07;;;;;;;17.00;5.00;;;;;;;21.84;41.33;100160.80;109958;1283;21866;-66
2023/10/23 00:27:33;;;;;;;13.50;4.60;;;;;;;21.81;41.40;100155.61;109963;1286;21939;-66
2023/10/23 00:30:00;;;;;;;17.20;4.80;;;;;;;21.79;41.61;100158.61;109952;1286;21938;-57
2023/10/23 00:32:25;;;;;;;11.30;4.00;;;;;;;21.77;41.67;100155.34;109947;1286;21933;-66
2023/10/23 00:34:51;;;;;;;16.40;4.30;;;;;;;21.77;41.59;100156.56;109952;1276;21955;-57
2023/10/23 00:37:16;;;;;;;20.40;5.20;;;;;;;21.77;41.56;100157.83;109950;1279;21958;-58
2023/10/23 00:39:42;;;;;;;13.10;4.80;;;;;;;21.78;41.73;100162.64;109970;1286;21934;-66
2023/10/23 00:42:07;;;;;;;19.20;5.20;;;;;;;21.77;41.77;100161.73;109948;1279;21937;-66
2023/10/23 00:44:33;;;;;;;15.20;4.40;;;;;;;21.76;41.81;100164.52;109946;1283;21936;-57
2023/10/23 00:46:58;;;;;;;13.10;5.40;;;;;;;21.75;41.90;100167.95;109960;1279;21933;-58
2023/10/23 00:49:24;;;;;;;17.20;4.90;;;;;;;21.75;41.78;100165.29;109939;1286;22037;-66
2023/10/23 00:51:50;;;;;;;15.20;5.30;;;;;;;21.75;41.68;100166.18;109952;1286;22405;-66
2023/10/23 00:54:16;;;;;;;13.30;4.80;;;;;;;21.74;41.58;100168.93;109927;1276;21973;-57
2023/10/23 00:56:41;;;;;;;15.40;4.90;;;;;;;21.75;41.59;100173.54;109946;1286;21946;-66
2023/10/23 00:59:08;;;;;;;14.40;4.10;;;;;;;21.75;41.66;100177.27;109969;1274;21921;-57
2023/10/23 01:01:34;;;;;;;16.90;4.70;;;;;;;21.76;41.78;100186.27;109953;1284;21952;-65
2023/10/23 01:04:00;;;;;;;15.30;4.50;;;;;;;21.75;41.66;100192.93;109923;1280;22073;-58
2023/10/23 01:06:27;;;;;;;14.80;4.80;;;;;;;21.72;41.78;100197.95;109916;1283;21999;-58
2023/10/23 01:08:53;;;;;;;13.10;4.80;;;;;;;21.64;41.76;100196.50;109958;1274;21928;-64
2023/10/23 01:11:18;;;;;;;12.10;5.00;;;;;;;21.55;41.74;100194.52;109910;1286;22006;-57
2023/10/23 01:13:44;;;;;;;10.30;4.60;;;;;;;21.47;41.65;100193.92;109974;1274;21927;-67
2023/10/23 01:16:09;;;;;;;13.90;4.60;;;;;;;21.40;41.77;100195.42;109943;1279;22039;-66
2023/10/23 01:18:35;;;;;;;14.30;4.60;;;;;;;21.34;41.68;100197.57;109956;1282;21977;-67
2023/10/23 01:21:01;;;;;;;16.20;4.30;;;;;;;21.29;41.64;100197.30;109966;1283;21876;-57
2023/10/23 01:23:27;;;;;;;16.00;5.20;;;;;;;21.28;41.74;100201.69;109958;1279;21971;-66
2023/10/23 01:25:53;;;;;;;15.40;4.60;;;;;;;21.27;41.64;100205.49;109926;1279;21941;-66
2023/10/23 01:28:19;;;;;;;25.80;5.60;;;;;;;21.25;41.55;100209.52;109944;1283;22004;-57
2023/10/23 01:30:44;;;;;;;25.80;6.40;;;;;;;21.22;41.54;100215.01;109975;1286;21919;-66
2023/10/23 01:33:10;;;;;;;14.60;4.30;;;;;;;21.21;41.43;100220.11;109947;1286;21863;-58
2023/10/23 01:35:36;;;;;;;11.20;4.50;;;;;;;21.20;41.37;100224.60;109939;1286;21961;-58
2023/10/23 01:38:01;;;;;;;14.50;5.30;;;;;;;21.20;41.21;100226.03;109970;1279;21924;-57
2023/10/23 01:40:27;;;;;;;16.70;5.50;;;;;;;21.15;41.11;100230.62;109960;1286;21939;-66
2023/10/23 01:42:52;;;;;;;19.20;6.60;;;;;;;21.03;41.28;100231.86;109940;1286;22041;-65
2023/10/23 01:45:21;;;;;;;12.20;4.70;;;;;;;20.91;41.30;100233.44;109965;1279;21909;-57
2023/10/23 01:47:46;;;;;;;14.60;4.60;;;;;;;20.81;41.53;100230.45;109946;1279;21995;-57
2023/10/23 01:50:12;;;;;;;14.30;4.60;;;;;;;20.72;41.70;100229.49;109972;1283;21944;-57
2023/10/23 01:52:39;;;;;;;17.00;4.70;;;;;;;20.69;41.83;100225.21;109983;1280;21925;-59
2023/10/23 01:55:05;;;;;;;14.00;4.80;;;;;;;20.70;41.85;100227.13;109955;1279;21931;-58
2023/10/23 01:57:30;;;;;;;14.50;4.80;;;;;;;20.70;41.78;100231.59;109957;1279;21901;-67
2023/10/23 02:00:04;;;;;;;16.40;5.00;;;;;;;20.70;41.76;100233.72;109947;1284;21855;-57
2023/10/23 02:02:33;;;;;;;16.40;4.60;;;;;;;20.70;41.74;100234.98;109966;1273;21880;-66
2023/10/23 02:04:59;;;;;;;11.40;4.70;;;;;;;20.71;41.78;100238.66;109954;1283;22010;-57
2023/10/23 02:07:26;;;;;;;15.20;4.60;;;;;;;20.70;41.78;100243.16;109937;1279;22373;-58
2023/10/23 02:09:52;;;;;;;11.30;4.80;;;;;;;20.69;41.71;100243.23;109954;1279;21862;-66
2023/10/23 02:12:17;;;;;;;14.70;4.20;;;;;;;20.69;41.74;100245.01;109957;1286;21923;-58
2023/10/23 02:14:43;;;;;;;12.50;4.80;;;;;;;20.69;41.71;100247.50;109946;1279;21846;-66
2023/10/23 02:17:08;;;;;;;11.20;4.30;;;;;;;20.69;41.70;100247.70;109947;1273;21861;-58
2023/10/23 02:19:34;;;;;;;14.30;5.70;;;;;;;20.66;41.66;100244.63;109927;1286;22001;-57
2023/10/23 02:21:59;;;;;;;16.40;4.90;;;;;;;20.65;41.57;100250.23;109954;1286;21903;-67
2023/10/23 02:24:25;;;;;;;14.70;4.40;;;;;;;20.63;41.62;100251.73;109953;1275;22010;-57
2023/10/23 02:26:51;;;;;;;12.70;4.50;;;;;;;20.61;41.58;100252.71;109961;1283;21914;-58
2023/10/23 02:29:16;;;;;;;16.90;5.00;;;;;;;20.58;41.59;100255.02;109940;1286;22003;-57
2023/10/23 02:31:42;;;;;;;12.30;5.20;;;;;;;20.58;41.65;100255.06;109954;1286;21911;-57
2023/10/23 02:34:08;;;;;;;14.70;4.10;;;;;;;20.58;41.62;100253.27;109935;1279;22006;-67
2023/10/23 02:36:33;;;;;;;17.30;5.50;;;;;;;20.57;41.71;100253.13;109933;1283;21946;-57
2023/10/23 02:38:59;;;;;;;15.90;5.10;;;;;;;20.57;41.79;100254.22;109956;1280;22021;-66
2023/10/23 02:41:28;;;;;;;17.70;5.30;;;;;;;20.59;41.92;100257.34;109947;1283;21925;-67
2023/10/23 02:43:53;;;;;;;18.60;5.10;;;;;;;20.61;41.92;100258.60;109967;1279;21900;-66
2023/10/23 02:46:20;;;;;;;15.40;5.00;;;;;;;20.64;41.89;100260.42;109946;1279;21954;-57
2023/10/23 02:48:45;;;;;;;20.10;5.80;;;;;;;20.66;41.93;100261.56;109949;1273;21856;-67
2023/10/23 02:51:11;;;;;;;17.00;5.30;;;;;;;20.70;41.91;100261.71;109973;1279;21982;-58
2023/10/23 02:53:36;;;;;;;15.90;4.80;;;;;;;20.73;41.85;100261.52;109941;1286;21929;-67
2023/10/23 02:56:02;;;;;;;17.60;5.10;;;;;;;20.75;41.82;100263.92;109955;1283;21952;-59
2023/10/23 02:58:28;;;;;;;18.10;7.80;;;;;;;20.75;41.79;100266.59;109971;1276;21914;-58
2023/10/23 03:00:53;;;;;;;17.60;6.00;;;;;;;20.75;41.79;100265.53;109972;1273;21999;-57
2023/10/23 03:03:19;;;;;;;14.30;4.90;;;;;;;20.74;41.79;100266.30;109944;1280;21940;-58
2023/10/23 03:05:44;;;;;;;16.50;5.80;;;;;;;20.74;41.72;100266.67;109930;1276;21995;-67
2023/10/23 03:08:10;;;;;;;18.10;5.30;;;;;;;20.72;41.79;100265.84;109942;1286;21926;-58
2023/10/23 03:10:36;;;;;;;16.00;5.60;;;;;;;20.72;41.83;100268.58;109963;1277;21984;-67
2023/10/23 03:13:02;;;;;;;16.20;5.30;;;;;;;20.71;41.86;100268.80;109959;1283;21937;-57
2023/10/23 03:15:28;;;;;;;19.50;6.20;;;;;;;20.71;41.85;100268.97;109941;1284;22123;-67
2023/10/23 03:17:54;;;;;;;15.90;6.00;;;;;;;20.70;41.98;100272.41;109943;1284;21913;-68
2023/10/23 03:20:19;;;;;;;20.10;6.10;;;;;;;20.69;41.92;100273.88;109959;1286;22468;-67
2023/10/23 03:22:45;;;;;;;15.70;5.10;;;;;;;20.68;41.94;100274.30;109936;1286;21975;-68
2023/10/23 03:25:11;;;;;;;17.00;6.30;;;;;;;20.64;41.88;100275.92;109970;1286;21912;-57
2023/10/23 03:27:36;;;;;;;19.60;5.80;;;;;;;20.61;41.84;100279.67;109949;1286;21952;-64
2023/10/23 03:30:03;;;;;;;22.90;6.40;;;;;;;20.58;41.83;100281.43;109954;1286;22018;-67
2023/10/23 03:32:29;;;;;;;20.20;6.70;;;;;;;20.55;41.81;100286.42;109967;1279;21867;-58
2023/10/23 03:34:55;;;;;;;19.10;5.40;;;;;;;20.51;41.85;100286.10;109958;1286;21954;-67
2023/10/23 03:37:20;;;;;;;17.80;5.10;;;;;;;20.48;41.88;100286.27;109952;1286;21934;-67
2023/10/23 03:39:46;;;;;;;22.80;6.20;;;;;;;20.43;41.76;100284.76;109966;1285;21951;-66
2023/10/23 03:42:11;;;;;;;24.40;6.80;;;;;;;20.39;41.77;100282.81;109961;1273;21939;-65
2023/10/23 03:44:37;;;;;;;23.00;6.20;;;;;;;20.36;41.86;100283.14;109978;1279;21938;-66
2023/10/23 03:47:04;;;;;;;27.70;6.80;;;;;;;20.34;41.83;100283.99;109962;1283;21930;-58
2023/10/23 03:49:29;;;;;;;21.40;6.50;;;;;;;20.33;41.76;100287.41;109955;1286;21932;-59
2023/10/23 03:51:55;;;;;;;21.10;7.30;;;;;;;20.33;41.77;100287.80;109968;1273;21934;-66
2023/10/23 03:54:21;;;;;;;23.10;7.50;;;;;;;20.32;41.79;100287.68;109950;1286;21980;-66
2023/10/23 03:56:46;;;;;;;20.70;7.50;;;;;;;20.33;41.81;100288.29;109969;1279;22403;-60
2023/10/23 03:59:12;;;;;;;19.00;6.70;;;;;;;20.36;41.86;100290.27;109974;1286;21960;-58
2023/10/23 04:01:38;;;;;;;24.10;6.30;;;;;;;20.38;41.84;100295.71;109971;1284;22017;-58
2023/10/23 04:04:03;;;;;;;18.10;6.20;;;;;;;20.40;41.87;100295.94;109965;1279;21971;-66
2023/10/23 04:06:29;;;;;;;23.60;6.60;;;;;;;20.42;41.83;100294.98;109961;1283;21906;-62
2023/10/23 04:08:55;;;;;;;21.70;6.40;;;;;;;20.43;41.77;100299.89;109964;1285;22000;-57
2023/10/23 04:11:20;;;;;;;18.80;6.50;;;;;;;20.44;41.82;100300.21;109965;1273;21931;-58
2023/10/23 04:13:46;;;;;;;19.20;6.60;;;;;;;20.44;41.70;100298.41;109957;1276;22464;-67
2023/10/23 04:16:12;;;;;;;18.30;6.20;;;;;;;20.45;41.70;100297.66;109960;1284;21947;-57
2023/10/23 04:18:38;;;;;;;20.30;6.40;;;;;;;20.47;41.66;100301.11;109951;1273;21986;-57
2023/10/23 04:21:08;;;;;;;16.40;6.20;;;;;;;20.48;41.66;100306.59;109962;1283;21858;-58
2023/10/23 04:23:37;;;;;;;24.50;6.90;;;;;;;20.48;41.60;100307.65;109951;1286;22115;-67
2023/10/23 04:26:03;;;;;;;16.50;6.00;;;;;;;20.47;41.52;100314.80;109980;1278;21992;-57
2023/10/23 04:28:30;;;;;;;18.80;6.40;;;;;;;20.47;41.51;100318.05;109963;1279;21998;-58
2023/10/23 04:30:55;;;;;;;16.90;5.70;;;;;;;20.46;41.52;100315.63;109982;1273;21918;-66
2023/10/23 04:33:22;;;;;;;39.70;7.40;;;;;;;20.42;41.57;100314.95;109954;1286;21925;-57
2023/10/23 04:35:51;;;;;;;21.10;6.10;;;;;;;20.39;41.51;100323.29;109948;1279;21858;-57
2023/10/23 04:38:17;;;;;;;17.00;5.70;;;;;;;20.37;41.59;100328.02;109968;1278;21924;-57
2023/10/23 04:40:44;;;;;;;18.40;5.50;;;;;;;20.37;41.61;100326.94;109946;1286;21929;-67
2023/10/23 04:43:12;;;;;;;22.40;7.40;;;;;;;20.39;41.57;100329.33;109973;1273;21947;-68
2023/10/23 04:45:38;;;;;;;23.70;6.50;;;;;;;20.41;41.57;100329.61;109960;1279;21887;-59
2023/10/23 04:48:04;;;;;;;18.50;6.80;;;;;;;20.42;41.59;100330.41;109963;1286;21949;-67
2023/10/23 04:50:33;;;;;;;20.50;5.70;;;;;;;20.44;41.67;100334.96;109959;1286;21936;-68
2023/10/23 04:52:59;;;;;;;25.70;6.00;;;;;;;20.47;41.79;100338.20;109949;1280;21949;-67
2023/10/23 04:55:33;;;;;;;29.30;6.10;;;;;;;20.49;41.73;100340.71;109901;1279;21993;-67
2023/10/23 04:57:59;;;;;;;18.70;5.80;;;;;;;20.52;41.75;100345.23;109961;1286;21948;-59
2023/10/23 05:00:25;;;;;;;24.20;6.20;;;;;;;20.55;41.77;100347.36;109958;1283;21900;-67
2023/10/23 05:02:50;;;;;;;18.80;6.00;;;;;;;20.60;41.73;100351.91;109962;1279;21890;-59
2023/10/23 05:05:16;;;;;;;28.20;5.60;;;;;;;20.66;41.79;100352.30;109975;1286;21970;-58
2023/10/23 05:07:42;;;;;;;22.20;5.70;;;;;;;20.71;41.84;100354.02;109953;1286;21993;-58
2023/10/23 05:10:09;;;;;;;19.80;5.80;;;;;;;20.74;41.82;100359.36;109968;1279;22378;-68
2023/10/23 05:12:35;;;;;;;21.30;5.80;;;;;;;20.75;41.84;100361.06;109955;1279;21937;-68
2023/10/23 05:15:01;;;;;;;18.70;5.40;;;;;;;20.77;41.86;100367.39;109963;1286;21930;-66
2023/10/23 05:17:27;;;;;;;21.70;5.30;;;;;;;20.80;41.83;100369.37;109990;1279;22025;-64
2023/10/23 05:19:52;;;;;;;18.70;5.30;;;;;;;20.86;41.92;100369.27;109968;1279;22044;-66
2023/10/23 05:22:18;;;;;;;19.10;5.40;;;;;;;20.91;41.81;100370.39;109906;1279;22000;-67
2023/10/23 05:24:45;;;;;;;15.90;5.50;;;;;;;20.98;41.77;100374.87;109938;1279;21843;-67
2023/10/23 05:27:12;;;;;;;13.60;4.60;;;;;;;21.05;41.67;100379.43;109953;1279;22420;-58
2023/10/23 05:29:38;;;;;;;29.50;6.80;;;;;;;21.12;41.65;100383.13;109965;1283;22015;-58
2023/10/23 05:32:04;;;;;;;18.30;5.10;;;;;;;21.19;41.61;100386.49;109958;1273;21983;-60
2023/10/23 05:34:29;;;;;;;21.00;5.10;;;;;;;21.24;41.57;100385.48;109973;1286;21950;-58
2023/10/23 05:36:55;;;;;;;22.20;5.20;;;;;;;21.29;41.47;100388.64;109969;1283;21846;-68
2023/10/23 05:39:21;;;;;;;21.60;6.70;;;;;;;21.33;41.43;100391.77;110008;1279;21988;-58
2023/10/23 05:41:46;;;;;;;22.10;6.80;;;;;;;21.37;41.34;100388.36;109962;1279;21923;-58
2023/10/23 05:44:12;;;;;;;30.30;8.00;;;;;;;21.37;41.26;100389.38;109982;1277;21965;-58
2023/10/23 05:46:37;;;;;;;18.60;6.20;;;;;;;21.39;41.42;100394.30;109959;1286;21928;-60
2023/10/23 05:49:03;;;;;;;21.40;6.20;;;;;;;21.41;41.31;100400.42;109948;1286;21963;-67
2023/10/23 05:51:29;;;;;;;19.80;6.00;;;;;;;21.41;41.46;100405.23;109971;1286;21917;-58
2023/10/23 05:53:56;;;;;;;19.70;6.10;;;;;;;21.43;41.45;100409.08;109966;1283;22003;-66
2023/10/23 05:56:22;;;;;;;15.60;6.90;;;;;;;21.44;41.46;100416.30;109957;1279;21953;-58
2023/10/23 05:58:48;;;;;;;26.10;9.70;;;;;;;21.46;41.43;100420.12;109969;1278;22010;-58
2023/10/23 06:01:14;;;;;;;36.90;14.20;;;;;;;21.49;41.31;100426.40;109953;1279;21866;-67
2023/10/23 06:03:39;;;;;;;30.50;10.50;;;;;;;21.50;41.27;100427.38;109963;1273;22007;-67
2023/10/23 06:06:05;;;;;;;29.30;9.00;;;;;;;21.53;41.23;100430.79;109951;1286;21989;-67
2023/10/23 06:08:31;;;;;;;28.20;7.60;;;;;;;21.55;41.24;100432.48;109959;1286;22018;-58
2023/10/23 06:10:57;;;;;;;23.40;6.60;;;;;;;21.57;41.30;100437.02;109955;1283;21853;-67
2023/10/23 06:13:22;;;;;;;16.40;5.80;;;;;;;21.59;41.21;100437.96;109957;1276;22376;-67
2023/10/23 06:15:48;;;;;;;17.90;5.50;;;;;;;21.62;41.31;100441.34;109953;1279;21959;-58
2023/10/23 06:18:14;;;;;;;24.10;5.40;;;;;;;21.71;41.38;100441.59;109951;1276;21870;-68
2023/10/23 06:20:39;;;;;;;17.30;5.00;;;;;;;21.81;41.32;100446.93;109961;1286;22413;-68
2023/10/23 06:23:05;;;;;;;17.60;5.10;;;;;;;21.90;41.22;100446.00;109944;1278;22007;-58
2023/10/23 06:25:31;;;;;;;13.50;5.70;;;;;;;22.01;41.21;100450.23;109979;1286;21947;-68
2023/10/23 06:27:57;;;;;;;19.10;6.60;;;;;;;22.13;41.23;100454.51;109949;1283;21963;-58
2023/10/23 06:30:23;;;;;;;21.10;7.10;;;;;;;22.25;41.06;100456.30;109946;1279;21943;-59
2023/10/23 06:32:48;;;;;;;16.40;6.70;;;;;;;22.39;41.02;100456.50;109960;1279;21900;-58
2023/10/23 06:35:17;;;;;;;19.60;7.60;;;;;;;22.55;41.02;100460.09;109934;1286;21992;-58
2023/10/23 06:37:43;;;;;;;28.70;8.00;;;;;;;22.68;41.07;100461.92;109947;1286;22010;-58
2023/10/23 06:40:09;;;;;;;23.10;8.00;;;;;;;22.84;40.87;100458.81;109959;1286;21938;-67
2023/10/23 06:42:35;;;;;;;26.00;8.50;;;;;;;23.02;40.70;100461.99;109958;1279;21864;-67
2023/10/23 06:45:00;;;;;;;27.30;7.40;;;;;;;23.20;40.66;100461.77;109945;1285;21888;-68
2023/10/23 06:47:26;;;;;;;18.80;6.90;;;;;;;23.39;40.56;100466.50;109937;1273;21948;-60
2023/10/23 06:49:52;;;;;;;15.50;5.60;;;;;;;23.58;40.22;100466.50;109946;1286;21923;-68
2023/10/23 06:52:17;;;;;;;22.10;7.00;;;;;;;23.75;40.07;100472.39;109948;1284;22003;-67
2023/10/23 06:54:43;;;;;;;16.80;4.90;;;;;;;23.91;39.87;100475.10;109955;1279;21945;-59
2023/10/23 06:57:09;;;;;;;15.60;4.80;;;;;;;24.09;39.75;100476.46;109951;1279;21944;-59
2023/10/23 06:59:38;;;;;;;15.30;4.50;;;;;;;24.27;39.58;100483.31;109964;1276;21922;-69
2023/10/23 07:02:03;;;;;;;10.60;3.20;;;;;;;24.49;39.58;100482.17;109941;1273;21898;-58
2023/10/23 07:04:29;;;;;;;8.30;3.30;;;;;;;24.76;39.43;100483.38;109931;1279;21951;-66
2023/10/23 07:06:55;;;;;;;16.10;3.20;;;;;;;25.06;39.16;100482.52;109961;1286;21997;-59
2023/10/23 07:09:20;;;;;;;8.80;3.40;;;;;;;25.36;38.81;100485.37;109962;1276;21988;-58
2023/10/23 07:11:50;;;;;;;7.70;3.00;;;;;;;25.68;38.51;100487.59;109948;1279;21950;-61
2023/10/23 07:14:15;;;;;;;7.90;3.10;;;;;;;26.02;38.18;100487.19;109946;1279;21945;-64
2023/10/23 07:16:42;;;;;;;11.20;2.30;;;;;;;26.38;37.58;100483.77;109965;1286;21913;-69
2023/10/23 07:19:08;;;;;;;9.80;2.70;;;;;;;26.72;37.03;100484.73;109965;1285;21991;-59
2023/10/23 07:21:34;;;;;;;7.90;2.30;;;;;;;27.00;36.47;100474.88;109953;1279;21955;-59
2023/10/23 07:23:59;;;;;;;11.00;2.60;;;;;;;27.21;36.18;100476.75;109957;1279;22024;-68
2023/10/23 07:26:25;;;;;;;10.90;2.70;;;;;;;27.43;36.25;100473.59;109954;1279;21982;-61
2023/10/23 07:28:50;;;;;;;10.20;2.20;;;;;;;27.67;35.92;100472.73;109963;1279;21910;-68
2023/10/23 07:31:16;;;;;;;9.30;2.70;;;;;;;27.90;35.89;100476.52;109943;1275;22019;-68
2023/10/23 07:33:43;;;;;;;6.70;1.90;;;;;;;28.09;35.74;100476.57;109942;1279;21932;-68
2023/10/23 07:36:12;;;;;;;7.80;2.00;;;;;;;28.24;35.16;100480.60;109958;1276;21993;-69
2023/10/23 07:38:38;;;;;;;8.20;2.10;;;;;;;28.41;35.25;100481.67;109958;1279;21910;-68
2023/10/23 07:41:04;;;;;;;5.10;1.80;;;;;;;28.57;34.90;100479.89;109961;1286;21937;-59
2023/10/23 07:43:30;;;;;;;6.40;1.40;;;;;;;28.73;34.65;100477.08;109935;1283;21926;-59
2023/10/23 07:45:56;;;;;;;4.80;2.20;;;;;;;28.84;34.38;100477.80;109956;1278;22476;-59
2023/10/23 07:48:22;;;;;;;17.20;10.90;;;;;;;28.88;34.24;100476.92;109959;1286;21948;-59
2023/10/23 07:50:48;;;;;;;9.00;3.20;;;;;;;28.92;33.98;100477.08;109964;1283;21997;-59
2023/10/23 07:53:13;;;;;;;5.90;2.10;;;;;;;28.94;33.99;100479.98;109947;1286;21951;-68
2023/10/23 07:55:39;;;;;;;8.20;1.90;;;;;;;28.95;34.05;100479.89;109904;1282;22002;-69
2023/10/23 07:58:04;;;;;;;9.60;1.90;;;;;;;29.06;33.97;100479.16;109954;1286;21938;-68
2023/10/23 08:00:30;;;;;;;8.30;2.00;;;;;;;29.22;33.75;100482.38;109965;1279;21875;-60
2023/10/23 08:02:56;;;;;;;7.60;1.60;;;;;;;29.37;33.73;100483.63;109955;1286;21884;-70
2023/10/23 08:05:22;;;;;;;12.10;2.80;;;;;;;29.47;33.58;100489.41;109961;1286;21943;-60
2023/10/23 08:07:48;;;;;;;6.70;2.00;;;;;;;29.54;33.51;100490.62;109956;1283;21927;-68
2023/10/23 08:10:14;;;;;;;5.80;1.80;;;;;;;29.57;33.29;100490.73;109962;1275;22131;-69
2023/10/23 08:12:40;;;;;;;6.10;1.70;;;;;;;29.50;33.02;100488.94;109969;1279;21927;-59
2023/10/23 08:15:07;;;;;;;6.90;2.10;;;;;;;29.45;33.18;100489.60;109924;1286;21949;-69
2023/10/23 08:17:33;;;;;;;6.30;1.60;;;;;;;29.45;32.93;100491.77;109955;1279;21912;-70
2023/10/23 08:19:59;;;;;;;9.30;2.30;;;;;;;29.51;32.95;100489.95;109956;1286;22010;-59
2023/10/23 08:22:24;;;;;;;6.00;2.00;;;;;;;29.64;32.66;100493.44;109963;1279;22031;-61
2023/10/23 08:24:51;;;;;;;9.40;2.90;;;;;;;29.75;32.55;100488.84;109852;1273;21942;-70
2023/10/23 08:27:16;;;;;;;10.00;3.10;;;;;;;29.92;32.58;100491.14;109947;1286;21871;-69
2023/10/23 08:29:42;;;;;;;7.00;2.30;;;;;;;30.12;32.20;100495.83;109956;1286;21937;-69
2023/10/23 08:32:07;;;;;;;6.70;2.40;;;;;;;30.27;32.19;100488.84;109964;1283;22069;-71
2023/10/23 08:34:33;;;;;;;6.40;2.00;;;;;;;30.41;32.23;100489.70;109946;1279;21922;-60
2023/10/23 08:36:58;;;;;;;6.30;1.90;;;;;;;30.53;31.90;100493.44;109970;1279;21951;-69
2023/10/23 08:39:25;;;;;;;5.20;1.60;;;;;;;30.61;31.65;100491.94;109972;1275;21973;-60
2023/10/23 08:41:50;;;;;;;12.20;2.20;;;;;;;30.72;31.61;100493.63;109941;1286;21927;-69
2023/10/23 08:44:16;;;;;;;7.50;2.90;;;;;;;30.80;31.38;100493.92;109970;1279;21974;-60
2023/10/23 08:46:42;;;;;;;7.20;1.50;;;;;;;30.85;31.05;100491.27;109954;1276;21909;-60
2023/10/23 08:49:08;;;;;;;7.70;1.70;;;;;;;30.83;30.97;100495.81;109947;1279;21888;-60
2023/10/23 08:51:34;;;;;;;5.30;1.60;;;;;;;30.82;31.27;100494.98;109964;1276;21917;-69
2023/10/23 08:54:20;;;;;;;9.10;2.10;;;;;;;30.87;31.31;100496.58;109958;1285;21919;-60
2023/10/23 08:57:02;;;;;;;8.50;1.90;;;;;;;30.87;30.59;100496.70;109950;1281;21927;-70
2023/10/23 08:59:28;;;;;;;5.70;1.70;;;;;;;30.83;30.60;100493.88;109924;1283;21929;-69
2023/10/23 09:01:54;;;;;;;8.00;1.60;;;;;;;30.83;30.84;100492.38;109933;1279;21972;-59
2023/10/23 09:04:20;;;;;;;6.80;2.60;;;;;;;30.90;30.92;100492.07;109962;1286;21856;-59
2023/10/23 09:06:47;;;;;;;8.10;3.00;;;;;;;30.95;31.03;100493.92;109971;1286;21910;-68
2023/10/23 09:09:13;;;;;;;6.40;3.20;;;;;;;31.05;30.77;100491.73;109946;1286;21895;-69
2023/10/23 09:11:46;;;;;;;6.30;1.50;;;;;;;31.21;30.86;100486.20;109966;1286;21916;-69
2023/10/23 09:14:23;;;;;;;6.80;1.60;;;;;;;31.29;30.31;100485.94;109943;1283;22003;-68
2023/10/23 09:16:49;;;;;;;4.80;1.20;;;;;;;31.32;29.99;100486.80;109950;1286;21915;-67
2023/10/23 09:19:36;;;;;;;6.70;1.50;;;;;;;31.33;30.05;100487.65;109882;1286;21965;-60
2023/10/23 09:22:03;;;;;;;4.60;1.00;;;;;;;31.38;30.44;100485.05;109934;1283;22411;-68
2023/10/23 09:24:29;;;;;;;3.80;1.20;;;;;;;31.49;30.23;100482.21;109921;1286;22412;-60
2023/10/23 09:26:55;;;;;;;3.90;1.40;;;;;;;31.62;30.09;100477.83;109930;1279;21998;-60
2023/10/23 09:29:24;;;;;;;4.70;1.30;;;;;;;31.75;29.96;100475.45;109931;1279;21854;-67
2023/10/23 09:31:50;;;;;;;5.70;1.20;;;;;;;31.83;29.68;100475.23;109930;1285;21934;-68
2023/10/23 09:34:18;;;;;;;3.30;1.50;;;;;;;31.82;29.52;100472.60;109923;1286;21982;-68
2023/10/23 09:36:45;;;;;;;5.00;1.20;;;;;;;31.85;29.43;100474.46;109933;1285;22030;-68
2023/10/23 09:39:11;;;;;;;3.70;1.00;;;;;;;31.86;29.31;100473.97;109944;1286;21960;-67
2023/10/23 09:41:37;;;;;;;3.60;1.20;;;;;;;31.91;29.59;100472.95;109925;1279;21962;-68
2023/10/23 09:44:04;;;;;;;12.90;6.20;;;;;;;31.96;29.61;100471.61;109851;1279;21953;-69
2023/10/23 09:46:31;;;;;;;3.30;1.50;;;;;;;31.98;29.51;100474.45;109923;1286;21951;-69
2023/10/23 09:48:59;;;;;;;6.40;2.20;;;;;;;32.00;29.76;100476.27;109889;1279;21984;-57
2023/10/23 09:51:40;;;;;;;3.70;1.90;;;;;;;32.05;29.89;100470.08;109919;1279;22094;-67
2023/10/23 09:54:17;;;;;;;6.00;1.40;;;;;;;32.18;29.45;100469.88;109928;1286;21955;-58
2023/10/23 09:56:47;;;;;;;2.70;1.10;;;;;;;32.25;29.51;100467.55;109918;1274;22003;-58
2023/10/23 09:59:13;;;;;;;;;;;;;;;32.34;29.36;100467.01;109939;1286;21989;-67
2023/10/23 10:01:40;;;;;;;3.70;1.00;;;;;;;32.42;29.20;100464.41;109880;1276;21952;-67
2023/10/23 10:04:26;;;;;;;3.30;1.00;;;;;;;32.45;28.85;100462.25;109879;1286;22009;-64
2023/10/23 10:06:54;;;;;;;3.30;1.20;;;;;;;32.37;28.80;100459.42;109893;1286;21877;-67
2023/10/23 10:09:21;;;;;;;4.00;0.90;;;;;;;32.21;28.61;100459.80;109928;1282;21974;-58
2023/10/23 10:11:47;;;;;;;2.90;1.00;;;;;;;32.12;28.72;100463.58;109931;1286;21981;-68
2023/10/23 10:14:13;;;;;;;2.70;1.10;;;;;;;32.15;29.07;100455.44;109929;1286;22016;-59
2023/10/23 10:16:39;;;;;;;4.20;1.10;;;;;;;32.26;29.02;100453.85;109855;1278;21912;-67
2023/10/23 10:19:05;;;;;;;2.90;1.00;;;;;;;32.39;28.73;100454.88;109948;1286;21934;-67
2023/10/23 10:21:32;;;;;;;2.80;1.20;;;;;;;32.50;28.61;100455.90;109934;1286;21904;-67
2023/10/23 10:24:00;;;;;;;4.40;1.00;;;;;;;32.63;28.34;100456.90;109943;1286;21925;-59
2023/10/23 10:26:25;;;;;;;3.00;0.70;;;;;;;32.73;28.06;100454.19;109916;1279;21939;-67
2023/10/23 10:28:52;;;;;;;8.80;1.60;;;;;;;32.79;28.12;100455.45;109914;1286;21968;-59
2023/10/23 10:31:17;;;;;;;1.90;0.90;;;;;;;32.76;27.95;100454.41;109961;1279;21862;-59
2023/10/23 10:33:43;;;;;;;5.10;1.00;;;;;;;32.72;28.03;100451.39;109892;1279;21925;-59
2023/10/23 10:36:10;;;;;;;1.80;0.60;;;;;;;32.77;28.14;100449.13;109907;1282;21958;-68
2023/10/23 10:38:36;;;;;;;2.50;0.70;;;;;;;32.87;27.91;100445.20;109957;1276;21916;-68
2023/10/23 10:41:03;;;;;;;2.80;0.80;;;;;;;32.76;27.58;100445.16;109942;1286;21938;-59
2023/10/23 10:43:39;;;;;;;5.90;0.80;;;;;;;32.53;27.48;100445.43;109949;1286;21932;-66
2023/10/23 10:46:20;;;;;;;5.40;0.80;;;;;;;32.32;27.72;100445.02;109914;1286;21954;-59
2023/10/23 10:48:47;;;;;;;2.70;1.10;;;;;;;32.26;27.86;100442.77;109939;1280;21958;-67
2023/10/23 10:51:17;;;;;;;2.30;1.00;;;;;;;32.34;27.87;100437.42;109923;1286;21964;-59
2023/10/23 10:53:45;;;;;;;5.70;1.80;;;;;;;32.42;27.55;100438.40;109918;1286;21965;-67
2023/10/23 10:56:10;;;;;;;3.20;1.20;;;;;;;32.38;27.67;100438.87;109865;1286;22482;-68
2023/10/23 10:58:37;;;;;;;2.00;0.80;;;;;;;32.31;27.59;100443.38;109923;1286;21988;-58
2023/10/23 11:01:03;;;;;;;2.70;0.90;;;;;;;32.30;27.37;100442.38;109931;1279;21961;-68
2023/10/23 11:03:34;;;;;;;5.40;0.90;;;;;;;32.29;27.19;100445.11;109927;1273;21868;-58
2023/10/23 11:06:00;;;;;;;2.90;1.10;;;;;;;32.27;26.89;100443.90;109938;1286;22086;-68
2023/10/23 11:08:29;;;;;;;2.90;1.00;;;;;;;32.22;27.12;100443.73;109930;1279;22151;-59